Time;durP1;ratioP1;P1;durP2;ratioP2;P2;SDS_P1;SDS_P2;PMS_P1;PMS_P2;Temp;Humidity;BMP_temperature;BMP_pressure;BME280_temperature;BME280_humidity;BME280_pressure;Samples;Min_cycle;Max_cycle;Signal;HPM_P1;HPM_P2
2021/01/30 00:01:07;;;;;;;13.63;5.33;;;24.70;99.90;;;;;;5055049;28;20168;-72
2021/01/30 00:03:35;;;;;;;7.60;4.83;;;24.70;99.90;;;;;;5055289;28;20672;-72
2021/01/30 00:06:02;;;;;;;10.17;5.03;;;24.70;99.90;;;;;;5054475;28;20533;-72
2021/01/30 00:08:30;;;;;;;7.77;5.20;;;24.60;99.90;;;;;;5050564;28;20179;-73
2021/01/30 00:10:57;;;;;;;6.43;5.77;;;24.70;99.90;;;;;;5044778;28;20544;-72
2021/01/30 00:13:25;;;;;;;7.70;5.87;;;24.80;99.90;;;;;;5043154;28;20263;-72
2021/01/30 00:15:52;;;;;;;6.23;5.40;;;24.90;99.90;;;;;;5050853;28;20184;-72
2021/01/30 00:18:19;;;;;;;11.37;5.60;;;25.00;99.90;;;;;;5055126;28;20234;-72
2021/01/30 00:20:47;;;;;;;9.13;6.30;;;24.90;99.90;;;;;;5059430;28;20172;-72
2021/01/30 00:23:14;;;;;;;10.07;5.37;;;24.90;99.90;;;;;;5063186;28;20241;-73
2021/01/30 00:25:42;;;;;;;6.40;5.60;;;24.90;99.90;;;;;;5055894;28;20572;-72
2021/01/30 00:28:10;;;;;;;6.67;5.93;;;25.10;99.90;;;;;;5052911;28;20189;-72
2021/01/30 00:30:40;;;;;;;9.67;6.67;;;25.20;99.90;;;;;;5047878;28;20200;-72
2021/01/30 00:33:08;;;;;;;8.37;6.43;;;25.10;99.90;;;;;;5054331;28;20179;-71
2021/01/30 00:35:37;;;;;;;9.83;6.60;;;25.00;99.90;;;;;;5064902;28;20580;-72
2021/01/30 00:38:05;;;;;;;10.57;6.43;;;24.90;99.90;;;;;;5055044;28;20678;-72
2021/01/30 00:40:33;;;;;;;10.80;6.03;;;25.00;99.90;;;;;;5052203;28;20187;-72
2021/01/30 00:43:00;;;;;;;9.63;6.70;;;25.10;99.90;;;;;;5052494;28;20180;-72
2021/01/30 00:45:29;;;;;;;8.00;6.30;;;25.00;99.90;;;;;;5053933;28;20178;-72
2021/01/30 00:47:56;;;;;;;11.07;6.33;;;24.90;99.90;;;;;;5053676;28;20199;-73
2021/01/30 00:50:24;;;;;;;8.73;6.47;;;24.80;99.90;;;;;;5052479;28;20552;-71
2021/01/30 00:52:52;;;;;;;8.63;6.90;;;24.80;99.90;;;;;;5052180;28;20578;-72
2021/01/30 00:55:21;;;;;;;7.90;6.23;;;24.80;99.90;;;;;;5052837;28;20183;-72
2021/01/30 00:57:49;;;;;;;8.93;6.60;;;24.80;99.90;;;;;;5050515;28;20204;-71
2021/01/30 01:00:22;;;;;;;10.07;6.60;;;24.70;99.90;;;;;;5038002;28;20195;-71
2021/01/30 01:02:50;;;;;;;7.33;6.53;;;24.70;99.90;;;;;;5045119;28;20245;-71
2021/01/30 01:05:19;;;;;;;8.03;6.93;;;24.70;99.90;;;;;;5048902;28;20259;-70
2021/01/30 01:07:47;;;;;;;16.77;7.67;;;24.70;99.90;;;;;;5042061;28;20537;-70
2021/01/30 01:10:17;;;;;;;12.07;7.70;;;24.90;99.90;;;;;;5052493;28;20242;-70
2021/01/30 01:12:45;;;;;;;7.70;6.93;;;24.90;99.90;;;;;;5051240;28;20188;-71
2021/01/30 01:15:13;;;;;;;7.83;7.00;;;24.80;99.90;;;;;;5052680;28;20188;-71
2021/01/30 01:17:40;;;;;;;9.53;6.70;;;24.80;99.90;;;;;;5051816;28;20306;-71
2021/01/30 01:20:11;;;;;;;10.07;6.97;;;24.80;99.90;;;;;;5051975;28;20180;-72
2021/01/30 01:22:39;;;;;;;11.93;7.60;;;24.90;99.90;;;;;;5052140;28;20262;-71
2021/01/30 01:25:07;;;;;;;8.40;6.50;;;25.00;99.90;;;;;;5053087;28;20180;-71
2021/01/30 01:27:34;;;;;;;9.90;7.27;;;25.20;99.90;;;;;;5053146;28;20701;-72
2021/01/30 01:30:02;;;;;;;8.50;5.97;;;25.20;99.90;;;;;;5053426;28;20642;-71
2021/01/30 01:32:30;;;;;;;8.97;6.20;;;25.30;99.90;;;;;;5043638;28;20191;-71
2021/01/30 01:34:57;;;;;;;8.97;7.13;;;25.40;99.90;;;;;;5037284;28;20291;-71
2021/01/30 01:37:24;;;;;;;9.03;6.83;;;25.50;99.90;;;;;;5051997;28;20287;-72
2021/01/30 01:39:52;;;;;;;8.73;7.33;;;25.70;99.90;;;;;;5052698;28;20233;-72
2021/01/30 01:42:25;;;;;;;8.73;7.57;;;25.80;99.90;;;;;;5052964;28;20167;-72
2021/01/30 01:44:54;;;;;;;12.03;6.60;;;25.90;99.90;;;;;;5053044;28;20549;-72
2021/01/30 01:47:30;;;;;;;8.67;6.47;;;26.00;99.90;;;;;;5053096;28;20212;-72
2021/01/30 01:50:02;;;;;;;10.13;6.57;;;26.00;99.90;;;;;;5052539;28;20697;-72
2021/01/30 01:52:41;;;;;;;7.73;6.80;;;26.10;99.90;;;;;;5052469;28;20219;-72
2021/01/30 01:55:20;;;;;;;6.70;5.90;;;26.20;99.90;;;;;;5050799;28;20333;-72
2021/01/30 01:57:53;;;;;;;7.97;7.17;;;26.30;99.90;;;;;;5039498;28;20203;-72
2021/01/30 02:00:23;;;;;;;9.67;6.60;;;26.50;99.90;;;;;;5051617;28;20242;-72
2021/01/30 02:02:54;;;;;;;9.17;6.73;;;26.40;99.90;;;;;;5052028;28;20225;-72
2021/01/30 02:05:31;;;;;;;7.43;6.50;;;26.50;99.90;;;;;;5051395;28;20592;-72
2021/01/30 02:08:03;;;;;;;7.70;4.70;;;26.50;99.90;;;;;;5052954;28;20270;-73
2021/01/30 02:10:37;;;;;;;7.17;4.60;;;26.20;99.90;;;;;;5052624;28;20172;-72
2021/01/30 02:13:17;;;;;;;4.50;3.80;;;26.10;99.90;;;;;;5052852;28;20184;-72
2021/01/30 02:15:47;;;;;;;4.60;4.10;;;26.30;99.90;;;;;;5050698;28;20172;-72
2021/01/30 02:18:25;;;;;;;10.17;5.90;;;26.50;99.90;;;;;;5052672;28;20215;-72
2021/01/30 02:21:10;;;;;;;10.63;5.40;;;26.10;99.90;;;;;;5052690;28;20237;-72
2021/01/30 02:24:16;;;;;;;6.97;5.33;;;26.20;99.90;;;;;;5053430;28;20211;-72
2021/01/30 02:27:16;;;;;;;9.13;5.90;;;26.20;99.90;;;;;;5052630;28;20642;-71
2021/01/30 02:30:19;;;;;;;9.10;5.50;;;26.20;99.90;;;;;;5053116;28;20187;-72
2021/01/30 02:32:59;;;;;;;10.10;5.30;;;26.10;99.90;;;;;;5053153;28;20175;-72
2021/01/30 02:36:19;;;;;;;5.97;4.70;;;26.30;99.90;;;;;;5049141;28;20179;-72
2021/01/30 02:38:58;;;;;;;7.20;4.13;;;26.40;99.90;;;;;;5035484;28;20223;-71
2021/01/30 02:41:34;;;;;;;4.77;4.13;;;26.50;99.90;;;;;;5052199;28;20186;-71
2021/01/30 02:44:04;;;;;;;5.00;4.17;;;26.30;99.90;;;;;;5051947;28;20176;-71
2021/01/30 02:46:38;;;;;;;4.37;3.57;;;26.50;99.90;;;;;;5052536;28;20208;-71
2021/01/30 02:49:14;;;;;;;4.87;3.43;;;26.50;99.90;;;;;;5052851;28;20172;-72
2021/01/30 02:51:46;;;;;;;6.40;3.60;;;26.50;99.90;;;;;;5053049;28;20187;-71
2021/01/30 02:54:15;;;;;;;5.97;4.00;;;26.50;99.90;;;;;;5052918;28;20259;-72
2021/01/30 02:56:42;;;;;;;6.13;3.70;;;26.70;99.90;;;;;;5051683;28;20187;-72
2021/01/30 02:59:18;;;;;;;4.70;3.77;;;26.50;99.90;;;;;;5046563;28;20597;-71
2021/01/30 03:01:46;;;;;;;4.77;3.27;;;26.40;99.90;;;;;;5038538;28;20507;-72
2021/01/30 03:04:26;;;;;;;4.10;3.50;;;26.20;99.90;;;;;;5037573;28;20537;-72
2021/01/30 03:07:27;;;;;;;7.03;4.00;;;26.10;99.90;;;;;;5054905;28;20176;-71
2021/01/30 03:09:57;;;;;;;5.17;4.07;;;26.20;99.90;;;;;;5056457;28;20562;-71
2021/01/30 03:12:49;;;;;;;7.07;4.27;;;26.20;99.90;;;;;;5055625;28;20259;-72
2021/01/30 03:15:29;;;;;;;5.33;4.83;;;26.20;99.90;;;;;;5056515;28;20543;-71
2021/01/30 03:18:00;;;;;;;5.23;4.73;;;26.30;99.90;;;;;;5056438;28;20318;-71
2021/01/30 03:20:31;;;;;;;4.87;4.23;;;26.50;99.90;;;;;;5056565;28;20537;-71
2021/01/30 03:23:01;;;;;;;7.70;4.23;;;26.50;99.90;;;;;;5055741;28;20182;-71
2021/01/30 03:25:32;;;;;;;7.37;4.90;;;26.40;99.90;;;;;;5056281;28;20180;-71
2021/01/30 03:28:01;;;;;;;14.97;5.37;;;26.50;99.90;;;;;;5055999;28;20179;-71
2021/01/30 03:30:30;;;;;;;9.73;4.77;;;26.70;99.90;;;;;;5056149;28;20191;-72
2021/01/30 03:32:58;;;;;;;10.77;5.13;;;26.80;99.90;;;;;;5055911;28;20177;-72
2021/01/30 03:35:26;;;;;;;8.83;4.90;;;27.00;99.90;;;;;;5055926;28;20599;-70
2021/01/30 03:37:53;;;;;;;12.43;4.97;;;27.20;99.90;;;;;;5056058;28;20231;-71
2021/01/30 03:40:23;;;;;;;14.30;5.70;;;27.20;99.90;;;;;;5055876;28;20602;-70
2021/01/30 03:42:51;;;;;;;5.80;4.10;;;27.30;99.90;;;;;;5054611;28;20225;-74
2021/01/30 03:45:24;;;;;;;6.13;2.80;;;27.30;99.80;;;;;;5055745;28;20175;-71
2021/01/30 03:47:51;;;;;;;3.13;2.30;;;27.10;99.20;;;;;;5055710;28;20183;-72
2021/01/30 03:50:20;;;;;;;4.20;2.50;;;27.00;98.00;;;;;;5055575;28;20225;-72
2021/01/30 03:52:48;;;;;;;4.13;2.43;;;27.00;98.20;;;;;;5055584;28;20551;-71
2021/01/30 03:55:17;;;;;;;4.67;2.23;;;27.20;98.00;;;;;;5055449;28;20180;-71
2021/01/30 03:57:45;;;;;;;5.17;2.40;;;27.60;97.50;;;;;;5055128;28;20265;-71
2021/01/30 04:00:17;;;;;;;5.10;2.70;;;27.70;97.10;;;;;;5055110;28;20183;-71
2021/01/30 04:02:45;;;;;;;6.03;2.30;;;27.90;96.90;;;;;;5055121;28;20207;-71
2021/01/30 04:05:15;;;;;;;12.00;3.30;;;28.50;96.40;;;;;;5055276;28;20593;-70
2021/01/30 04:07:43;;;;;;;6.33;2.93;;;28.70;97.80;;;;;;5055159;28;20184;-70
2021/01/30 04:10:15;;;;;;;7.43;3.80;;;28.80;97.10;;;;;;5054968;28;20186;-74
2021/01/30 04:12:43;;;;;;;4.47;2.83;;;28.90;95.50;;;;;;5053243;28;20192;-73
2021/01/30 04:15:23;;;;;;;6.00;3.10;;;29.30;95.90;;;;;;5052540;28;20180;-71
2021/01/30 04:17:51;;;;;;;7.47;3.53;;;29.80;95.80;;;;;;5054408;28;20298;-71
2021/01/30 04:20:18;;;;;;;7.33;3.60;;;29.80;96.10;;;;;;5049369;28;20216;-70
2021/01/30 04:22:46;;;;;;;10.43;3.37;;;30.20;96.00;;;;;;5052638;28;20180;-71
2021/01/30 04:25:16;;;;;;;10.67;3.73;;;30.30;95.70;;;;;;5054249;28;20684;-70
2021/01/30 04:27:43;;;;;;;10.83;3.80;;;30.50;95.50;;;;;;5053806;28;20201;-71
2021/01/30 04:30:13;;;;;;;8.83;3.27;;;30.10;95.60;;;;;;5054446;28;20206;-70
2021/01/30 04:32:41;;;;;;;3.20;1.93;;;30.10;95.90;;;;;;5053932;28;20677;-69
2021/01/30 04:35:10;;;;;;;4.97;2.50;;;30.60;93.20;;;;;;5054191;28;20183;-70
2021/01/30 04:37:37;;;;;;;7.87;2.77;;;30.30;93.30;;;;;;5045967;28;20212;-71
2021/01/30 04:40:08;;;;;;;4.70;1.90;;;29.90;94.00;;;;;;5053981;28;20187;-70
2021/01/30 04:42:43;;;;;;;2.47;1.80;;;30.10;93.00;;;;;;5051005;28;20695;-69
2021/01/30 04:45:31;;;;;;;9.10;3.17;;;30.70;92.70;;;;;;5053996;28;20609;-70
2021/01/30 04:48:28;;;;;;;3.70;2.05;;;31.00;93.50;;;;;;5050703;28;20655;-70
2021/01/30 04:51:01;;;;;;;7.70;2.33;;;31.30;91.90;;;;;;5054194;28;20176;-69
2021/01/30 04:53:46;;;;;;;3.92;2.35;;;31.40;91.60;;;;;;5067972;28;20230;-71
2021/01/30 04:56:37;;;;;;;3.88;1.83;;;31.50;90.40;;;;;;5054254;28;20191;-72
2021/01/30 04:59:22;;;;;;;5.85;2.13;;;31.60;90.90;;;;;;5051670;28;20222;-70
2021/01/30 05:01:58;;;;;;;7.63;1.65;;;31.30;91.30;;;;;;5049984;28;20669;-71
2021/01/30 05:04:45;;;;;;;4.07;1.90;;;31.40;86.60;;;;;;5050936;28;20320;-70
2021/01/30 05:07:27;;;;;;;9.88;3.03;;;31.70;91.00;;;;;;5044368;28;20266;-71
2021/01/30 05:10:12;;;;;;;9.93;3.47;;;31.70;91.70;;;;;;5053009;28;20198;-71
2021/01/30 05:12:52;;;;;;;8.68;3.13;;;31.70;91.80;;;;;;5051481;28;20209;-70
2021/01/30 05:15:28;;;;;;;10.63;2.72;;;31.90;90.80;;;;;;5044133;28;20185;-71
2021/01/30 05:18:04;;;;;;;5.45;2.05;;;32.20;89.80;;;;;;5050562;28;20234;-71
2021/01/30 05:20:36;;;;;;;4.60;2.22;;;33.00;87.70;;;;;;5045526;28;20180;-70
2021/01/30 05:23:07;;;;;;;6.55;1.95;;;33.70;86.10;;;;;;5053355;28;20176;-70
2021/01/30 05:25:35;;;;;;;5.32;2.10;;;33.80;86.20;;;;;;5052379;28;20210;-71
2021/01/30 05:28:08;;;;;;;11.68;2.30;;;33.60;85.50;;;;;;5053043;28;20195;-70
2021/01/30 05:30:41;;;;;;;7.53;2.35;;;33.80;84.00;;;;;;5042849;28;20180;-69
2021/01/30 05:33:27;;;;;;;6.90;2.75;;;33.30;85.70;;;;;;5053471;28;20225;-68
2021/01/30 05:36:08;;;;;;;14.50;3.90;;;32.80;88.80;;;;;;5053001;28;20184;-70
2021/01/30 05:38:58;;;;;;;12.02;3.20;;;33.00;90.30;;;;;;5052742;28;20273;-69
2021/01/30 05:41:51;;;;;;;18.30;4.43;;;33.30;90.10;;;;;;5053108;28;20176;-69
2021/01/30 05:44:50;;;;;;;11.82;3.47;;;32.90;90.50;;;;;;5051450;28;20261;-67
2021/01/30 05:47:28;;;;;;;19.27;4.18;;;33.10;90.60;;;;;;5048814;28;20278;-68
2021/01/30 05:49:58;;;;;;;11.93;3.42;;;32.90;91.00;;;;;;5050962;28;20222;-68
2021/01/30 05:52:31;;;;;;;14.38;3.53;;;33.00;90.90;;;;;;5051960;28;20180;-69
2021/01/30 05:54:59;;;;;;;13.15;3.13;;;33.00;90.40;;;;;;5043901;28;20185;-69
2021/01/30 05:57:28;;;;;;;10.93;3.42;;;32.40;91.30;;;;;;5046187;28;20208;-69
2021/01/30 05:59:57;;;;;;;9.45;3.00;;;31.90;91.70;;;;;;5052790;28;20640;-70
2021/01/30 06:02:30;;;;;;;12.48;3.13;;;31.60;92.40;;;;;;5048075;28;20194;-71
2021/01/30 06:04:58;;;;;;;11.55;3.28;;;31.50;92.50;;;;;;5046401;28;20183;-69
2021/01/30 06:07:39;;;;;;;12.18;2.75;;;31.10;93.30;;;;;;5051979;28;20184;-71
2021/01/30 06:10:28;;;;;;;12.05;2.80;;;31.40;92.70;;;;;;5050372;28;20707;-71
2021/01/30 06:13:17;;;;;;;10.40;2.92;;;31.80;92.20;;;;;;5042102;28;20192;-71
2021/01/30 06:15:48;;;;;;;11.25;3.45;;;32.00;91.70;;;;;;5043922;28;20192;-71
2021/01/30 06:18:33;;;;;;;7.25;2.53;;;32.10;91.40;;;;;;5050216;28;20214;-72
2021/01/30 06:21:18;;;;;;;8.35;2.30;;;32.50;90.70;;;;;;5052266;28;20176;-71
2021/01/30 06:24:24;;;;;;;7.50;2.33;;;32.10;91.20;;;;;;5052502;28;20168;-70
2021/01/30 06:26:52;;;;;;;10.82;2.88;;;32.80;90.60;;;;;;5051748;28;20306;-72
2021/01/30 06:29:42;;;;;;;4.28;2.13;;;32.30;90.90;;;;;;5049770;28;20180;-71
2021/01/30 06:32:24;;;;;;;9.32;2.83;;;32.20;90.60;;;;;;5048783;28;20306;-73
2021/01/30 06:35:14;;;;;;;6.88;2.70;;;32.10;90.60;;;;;;5048174;28;20184;-70
2021/01/30 06:37:49;;;;;;;10.23;2.42;;;32.10;90.50;;;;;;5042303;28;20204;-73
2021/01/30 06:40:25;;;;;;;6.30;2.45;;;32.40;90.50;;;;;;5044247;28;20183;-73
2021/01/30 06:43:02;;;;;;;9.65;2.58;;;32.40;90.40;;;;;;5048220;28;20184;-68
2021/01/30 06:45:40;;;;;;;5.63;1.98;;;32.40;90.10;;;;;;5048671;28;20183;-69
2021/01/30 06:48:22;;;;;;;5.28;2.25;;;32.40;89.90;;;;;;5046627;28;20180;-70
2021/01/30 06:50:49;;;;;;;8.80;2.65;;;32.20;90.40;;;;;;5049081;28;20207;-73
2021/01/30 06:53:19;;;;;;;8.40;2.38;;;32.00;90.40;;;;;;5048571;28;20267;-66
2021/01/30 06:55:47;;;;;;;7.10;2.35;;;31.90;90.60;;;;;;5051450;28;20187;-68
2021/01/30 06:58:29;;;;;;;12.77;6.88;;;32.20;90.20;;;;;;5050489;28;20297;-68
2021/01/30 07:01:23;;;;;;;12.18;4.68;;;32.10;90.50;;;;;;5046371;28;20253;-68
2021/01/30 07:04:15;;;;;;;15.02;2.67;;;32.40;90.10;;;;;;5049163;28;20265;-68
2021/01/30 07:07:13;;;;;;;10.48;5.40;;;32.60;89.60;;;;;;5055130;28;20278;-68
2021/01/30 07:09:53;;;;;;;11.20;2.50;;;32.50;89.00;;;;;;5049042;28;20191;-67
2021/01/30 07:12:33;;;;;;;12.27;3.60;;;32.20;90.20;;;;;;5051887;28;20210;-68
2021/01/30 07:15:06;;;;;;;7.18;2.58;;;31.90;90.50;;;;;;5050290;28;20615;-68
2021/01/30 07:18:04;;;;;;;8.57;2.50;;;31.70;90.50;;;;;;5051446;28;20261;-66
2021/01/30 07:20:49;;;;;;;7.57;2.50;;;31.30;91.00;;;;;;5050264;28;20182;-66
2021/01/30 07:23:20;;;;;;;6.85;3.30;;;30.60;92.10;;;;;;5051923;28;20184;-67
2021/01/30 07:26:08;;;;;;;10.65;2.83;;;29.90;93.50;;;;;;5050960;28;20235;-67
2021/01/30 07:28:42;;;;;;;11.00;3.00;;;29.40;94.50;;;;;;5041218;28;20184;-68
2021/01/30 07:31:13;;;;;;;13.07;2.93;;;29.00;95.00;;;;;;5051147;28;20203;-68
2021/01/30 07:34:09;;;;;;;8.43;2.83;;;28.80;95.80;;;;;;5050006;28;20184;-68
2021/01/30 07:36:59;;;;;;;7.90;2.80;;;28.50;96.30;;;;;;5050163;28;20188;-67
2021/01/30 07:40:00;;;;;;;11.50;3.47;;;28.30;96.90;;;;;;5042803;28;20763;-68
2021/01/30 07:42:41;;;;;;;9.77;3.73;;;28.20;97.40;;;;;;5049884;28;20175;-69
2021/01/30 07:45:22;;;;;;;11.83;4.03;;;28.40;97.30;;;;;;5051900;28;20168;-68
2021/01/30 07:48:04;;;;;;;13.80;3.93;;;28.60;96.90;;;;;;5050757;28;20710;-69
2021/01/30 07:50:35;;;;;;;11.60;3.63;;;28.80;96.50;;;;;;5051653;28;20192;-68
2021/01/30 07:53:28;;;;;;;11.83;3.73;;;28.60;96.90;;;;;;5055074;28;20233;-69
2021/01/30 07:56:19;;;;;;;12.80;4.37;;;28.20;97.50;;;;;;5054561;28;20266;-70
2021/01/30 07:59:11;;;;;;;15.13;4.10;;;27.90;98.20;;;;;;5051948;28;20246;-70
2021/01/30 08:01:46;;;;;;;15.40;4.30;;;27.90;98.70;;;;;;5055221;28;20183;-69
2021/01/30 08:04:34;;;;;;;13.50;3.57;;;27.70;98.60;;;;;;5040902;28;20183;-69
2021/01/30 08:07:08;;;;;;;17.50;4.43;;;27.60;98.90;;;;;;5053303;28;20194;-69
2021/01/30 08:09:56;;;;;;;16.47;3.37;;;27.50;99.30;;;;;;5052250;28;20172;-69
2021/01/30 08:12:35;;;;;;;10.03;3.53;;;27.40;99.40;;;;;;5053600;28;20184;-70
2021/01/30 08:15:09;;;;;;;13.07;3.93;;;27.30;99.50;;;;;;5039676;28;20646;-69
2021/01/30 08:17:45;;;;;;;18.27;4.80;;;27.10;99.80;;;;;;5051622;28;20298;-69
2021/01/30 08:20:33;;;;;;;12.77;4.30;;;27.00;99.90;;;;;;5047393;28;20200;-68
2021/01/30 08:23:06;;;;;;;16.07;3.70;;;26.90;99.90;;;;;;5050024;28;20184;-68
2021/01/30 08:25:55;;;;;;;18.57;4.17;;;26.80;99.90;;;;;;5069474;28;20179;-70
2021/01/30 08:28:30;;;;;;;15.90;3.90;;;26.70;99.90;;;;;;5048669;28;20222;-69
2021/01/30 08:30:57;;;;;;;15.33;4.50;;;26.70;99.90;;;;;;5053283;28;20186;-72
2021/01/30 08:33:25;;;;;;;13.57;4.23;;;26.60;99.90;;;;;;5049919;28;20183;-71
2021/01/30 08:35:56;;;;;;;20.00;5.03;;;26.50;99.90;;;;;;5052562;28;20176;-71
2021/01/30 08:38:23;;;;;;;17.27;4.63;;;26.40;99.90;;;;;;5054214;28;20685;-70
2021/01/30 08:40:52;;;;;;;11.10;4.10;;;26.30;99.90;;;;;;5044761;28;20257;-72
2021/01/30 08:43:53;;;;;;;11.90;3.70;;;26.30;99.90;;;;;;5052030;28;20681;-70
2021/01/30 08:46:20;;;;;;;15.67;4.73;;;26.20;99.90;;;;;;5053902;28;20184;-70
2021/01/30 08:49:00;;;;;;;17.50;5.20;;;26.10;99.90;;;;;;5052780;28;20184;-70
2021/01/30 08:51:27;;;;;;;14.70;4.33;;;26.10;99.90;;;;;;5053437;28;20571;-69
2021/01/30 08:53:55;;;;;;;15.43;4.50;;;26.00;99.90;;;;;;5052893;28;20203;-68
2021/01/30 08:56:47;;;;;;;21.70;5.73;;;25.90;99.90;;;;;;5054034;28;20184;-69
2021/01/30 08:59:47;;;;;;;19.23;4.77;;;25.80;99.90;;;;;;5045958;28;20597;-66
2021/01/30 09:02:32;;;;;;;18.60;4.93;;;25.70;99.90;;;;;;5028154;28;20678;-68
2021/01/30 09:05:04;;;;;;;12.70;4.53;;;25.50;99.90;;;;;;5052992;28;20653;-68
2021/01/30 09:07:46;;;;;;;11.23;4.63;;;25.50;99.90;;;;;;5053747;28;20184;-68
2021/01/30 09:10:28;;;;;;;14.73;4.10;;;25.50;99.90;;;;;;5052447;28;20202;-69
2021/01/30 09:13:07;;;;;;;13.90;4.73;;;25.40;99.90;;;;;;5050958;28;20192;-68
2021/01/30 09:15:44;;;;;;;19.53;5.17;;;25.40;99.90;;;;;;5052376;28;20188;-69
2021/01/30 09:18:23;;;;;;;14.23;4.57;;;25.30;99.90;;;;;;5049137;28;20257;-70
2021/01/30 09:21:22;;;;;;;13.23;4.60;;;25.30;99.90;;;;;;5052943;28;20211;-70
2021/01/30 09:24:17;;;;;;;11.90;4.17;;;25.20;99.90;;;;;;5052556;28;20254;-70
2021/01/30 09:27:00;;;;;;;15.57;4.50;;;25.20;99.90;;;;;;5042033;28;20281;-70
2021/01/30 09:29:42;;;;;;;15.53;4.70;;;25.20;99.90;;;;;;5053296;28;20638;-69
2021/01/30 09:32:16;;;;;;;20.97;5.03;;;25.20;99.90;;;;;;5050267;28;20195;-68
2021/01/30 09:34:54;;;;;;;16.50;4.37;;;25.10;99.90;;;;;;5052853;28;20184;-68
2021/01/30 09:37:36;;;;;;;13.60;4.33;;;25.10;99.90;;;;;;5049403;28;20179;-68
2021/01/30 09:40:11;;;;;;;21.67;4.50;;;25.10;99.90;;;;;;5052874;28;20186;-67
2021/01/30 09:42:39;;;;;;;15.00;4.83;;;25.10;99.90;;;;;;5052611;28;20186;-68
2021/01/30 09:45:18;;;;;;;14.70;4.40;;;25.10;99.90;;;;;;5051822;28;20181;-68
2021/01/30 09:47:51;;;;;;;12.90;4.67;;;25.10;99.90;;;;;;5052804;28;20646;-68
2021/01/30 09:50:25;;;;;;;13.27;4.43;;;25.00;99.90;;;;;;5052912;28;20291;-68
2021/01/30 09:53:21;;;;;;;20.50;5.30;;;25.00;99.90;;;;;;5052524;28;20262;-68
2021/01/30 09:56:15;;;;;;;15.70;4.83;;;25.00;99.90;;;;;;5048475;28;20550;-68
2021/01/30 09:58:46;;;;;;;14.37;4.63;;;25.00;99.90;;;;;;5046681;28;20207;-69
2021/01/30 10:01:46;;;;;;;10.90;4.50;;;25.00;99.90;;;;;;5052633;28;20659;-68
2021/01/30 10:04:20;;;;;;;17.53;4.57;;;24.90;99.90;;;;;;5002770;28;20202;-69
2021/01/30 10:06:49;;;;;;;11.10;4.67;;;24.90;99.90;;;;;;5052220;28;20184;-69
2021/01/30 10:09:22;;;;;;;8.30;3.87;;;24.90;99.90;;;;;;5052390;28;20180;-69
2021/01/30 10:11:56;;;;;;;11.77;4.47;;;24.90;99.90;;;;;;5050689;28;20183;-69
2021/01/30 10:14:35;;;;;;;11.90;4.60;;;24.90;99.90;;;;;;5051736;28;20175;-70
2021/01/30 10:17:11;;;;;;;15.97;4.80;;;24.90;99.90;;;;;;5052528;28;20229;-68
2021/01/30 10:19:39;;;;;;;14.00;4.20;;;24.80;99.90;;;;;;5051553;28;20268;-69
2021/01/30 10:22:13;;;;;;;9.53;4.10;;;24.80;99.90;;;;;;5052412;28;20172;-69
2021/01/30 10:24:41;;;;;;;13.53;4.43;;;24.80;99.90;;;;;;5052007;28;20179;-68
2021/01/30 10:27:24;;;;;;;11.13;4.37;;;24.70;99.90;;;;;;5051999;28;20224;-68
2021/01/30 10:29:58;;;;;;;11.83;4.60;;;24.70;99.90;;;;;;5051780;28;20215;-68
2021/01/30 10:32:32;;;;;;;12.77;4.73;;;24.70;99.90;;;;;;5052213;28;20186;-69
2021/01/30 10:35:05;;;;;;;10.63;4.00;;;24.60;99.90;;;;;;5052056;28;20184;-70
2021/01/30 10:37:52;;;;;;;15.77;4.40;;;24.60;99.90;;;;;;5051754;28;20207;-69
2021/01/30 10:40:34;;;;;;;11.97;4.23;;;24.50;99.90;;;;;;5051769;28;20180;-67
2021/01/30 10:43:06;;;;;;;9.77;4.30;;;24.40;99.90;;;;;;5048566;28;20713;-68
2021/01/30 10:45:37;;;;;;;10.20;4.47;;;24.40;99.90;;;;;;5039275;28;20626;-70
2021/01/30 10:48:10;;;;;;;10.17;4.10;;;24.30;99.90;;;;;;5052239;28;21913;-68
2021/01/30 10:50:44;;;;;;;11.57;3.87;;;24.30;99.90;;;;;;5038510;28;20201;-70
2021/01/30 10:53:29;;;;;;;14.20;4.83;;;24.30;99.90;;;;;;5051892;28;20257;-68
2021/01/30 10:55:56;;;;;;;9.27;3.87;;;24.30;99.90;;;;;;5040397;28;20217;-69
2021/01/30 10:58:27;;;;;;;15.73;4.00;;;24.30;99.90;;;;;;5051390;28;20227;-69
2021/01/30 11:00:59;;;;;;;10.70;3.73;;;24.30;99.90;;;;;;5044108;28;20177;-69
2021/01/30 11:03:48;;;;;;;9.83;3.90;;;24.20;99.90;;;;;;5040300;28;20598;-69
2021/01/30 11:06:33;;;;;;;5.80;3.50;;;24.20;99.90;;;;;;5049332;28;20199;-69
2021/01/30 11:09:11;;;;;;;8.70;3.23;;;24.30;99.90;;;;;;5051842;28;20250;-69
2021/01/30 11:11:39;;;;;;;7.73;3.40;;;24.20;99.90;;;;;;5041493;28;20183;-69
2021/01/30 11:14:18;;;;;;;5.23;3.53;;;24.20;99.90;;;;;;5050507;28;20207;-69
2021/01/30 11:16:46;;;;;;;9.00;3.43;;;24.20;99.90;;;;;;5047708;28;20353;-71
2021/01/30 11:19:27;;;;;;;6.67;3.50;;;24.20;99.90;;;;;;5050959;28;20219;-70
2021/01/30 11:22:12;;;;;;;8.80;3.43;;;24.10;99.90;;;;;;5050448;28;20180;-69
2021/01/30 11:24:48;;;;;;;7.10;3.90;;;24.10;99.90;;;;;;5052613;28;20278;-70
2021/01/30 11:27:46;;;;;;;6.80;3.50;;;24.10;99.90;;;;;;5055922;28;20262;-68
2021/01/30 11:30:16;;;;;;;6.50;3.50;;;24.10;99.90;;;;;;5062417;28;20183;-69
2021/01/30 11:32:54;;;;;;;5.83;3.60;;;24.10;99.90;;;;;;5055062;28;20184;-69
2021/01/30 11:35:27;;;;;;;5.97;3.30;;;24.10;99.90;;;;;;5054214;28;20263;-69
2021/01/30 11:37:58;;;;;;;7.50;3.80;;;24.00;99.90;;;;;;5055656;28;20219;-69
2021/01/30 11:40:25;;;;;;;6.17;3.27;;;24.00;99.90;;;;;;5055726;28;20180;-69
2021/01/30 11:42:53;;;;;;;5.20;3.00;;;24.00;99.90;;;;;;5055166;28;20180;-69
2021/01/30 11:45:20;;;;;;;4.10;2.90;;;24.00;99.90;;;;;;5054526;28;20229;-69
2021/01/30 11:47:48;;;;;;;6.13;3.30;;;24.00;99.90;;;;;;5055630;28;20195;-69
2021/01/30 11:50:15;;;;;;;9.87;4.23;;;24.00;99.90;;;;;;5055016;28;20184;-70
2021/01/30 11:52:43;;;;;;;7.23;3.20;;;24.00;99.90;;;;;;5055446;28;20195;-70
2021/01/30 11:55:11;;;;;;;4.83;3.10;;;24.00;99.90;;;;;;5055204;28;20175;-71
2021/01/30 11:57:39;;;;;;;7.53;3.77;;;24.00;99.90;;;;;;5055240;28;20229;-71
2021/01/30 12:00:09;;;;;;;7.23;3.00;;;24.00;99.90;;;;;;5056425;28;20203;-70
2021/01/30 12:02:39;;;;;;;8.33;4.07;;;24.00;99.90;;;;;;5055045;28;20549;-70
2021/01/30 12:05:11;;;;;;;11.03;3.87;;;24.00;99.90;;;;;;5043519;28;20184;-71
2021/01/30 12:07:39;;;;;;;5.67;3.30;;;24.00;99.90;;;;;;5056139;28;20643;-70
2021/01/30 12:10:08;;;;;;;7.33;3.60;;;24.00;99.90;;;;;;5055677;28;20179;-70
2021/01/30 12:12:36;;;;;;;4.83;3.50;;;24.00;99.90;;;;;;5054263;28;20244;-69
2021/01/30 12:15:05;;;;;;;6.80;3.23;;;24.00;99.90;;;;;;5054754;28;20180;-69
2021/01/30 12:17:44;;;;;;;6.77;3.20;;;23.90;99.90;;;;;;5054631;28;20187;-69
2021/01/30 12:20:26;;;;;;;4.20;3.30;;;23.90;99.90;;;;;;5055260;28;20653;-69
2021/01/30 12:22:59;;;;;;;5.80;3.00;;;23.90;99.90;;;;;;5055533;28;20542;-69
2021/01/30 12:25:26;;;;;;;8.30;4.00;;;23.90;99.90;;;;;;5055863;28;20221;-70
2021/01/30 12:27:56;;;;;;;5.27;3.43;;;23.90;99.90;;;;;;5055490;28;20269;-69
2021/01/30 12:30:26;;;;;;;6.90;3.40;;;23.90;99.90;;;;;;5055759;28;20179;-69
2021/01/30 12:32:54;;;;;;;5.40;3.23;;;23.90;99.90;;;;;;5053644;28;20659;-70
2021/01/30 12:35:28;;;;;;;5.97;3.70;;;23.90;99.90;;;;;;5054050;28;20559;-70
2021/01/30 12:37:57;;;;;;;4.03;3.37;;;23.90;99.90;;;;;;5055383;28;20605;-69
2021/01/30 12:40:30;;;;;;;8.07;3.63;;;23.90;99.90;;;;;;5055023;28;20202;-70
2021/01/30 12:42:59;;;;;;;7.67;3.70;;;23.90;99.90;;;;;;5054662;28;20202;-69
2021/01/30 12:45:27;;;;;;;7.13;3.27;;;23.90;99.90;;;;;;5054938;28;20191;-70
2021/01/30 12:47:54;;;;;;;6.17;3.83;;;23.90;99.90;;;;;;5054850;28;20191;-69
2021/01/30 12:50:25;;;;;;;4.47;3.53;;;23.90;99.90;;;;;;5054203;28;20461;-69
2021/01/30 12:52:53;;;;;;;6.13;3.13;;;23.90;99.90;;;;;;5052907;28;20192;-69
2021/01/30 12:55:20;;;;;;;6.03;3.70;;;23.80;99.90;;;;;;5052971;28;20180;-70
2021/01/30 12:57:48;;;;;;;5.90;3.50;;;23.80;99.90;;;;;;5053585;28;20332;-69
2021/01/30 13:00:21;;;;;;;4.47;3.13;;;23.70;99.90;;;;;;5054506;28;20191;-69
2021/01/30 13:02:48;;;;;;;4.53;3.47;;;23.60;99.90;;;;;;5042021;28;20212;-69
2021/01/30 13:05:17;;;;;;;6.63;3.33;;;23.60;99.90;;;;;;5043330;28;20271;-69
2021/01/30 13:07:45;;;;;;;4.23;3.23;;;23.50;99.90;;;;;;5052580;28;20199;-69
2021/01/30 13:10:16;;;;;;;4.63;3.33;;;23.50;99.90;;;;;;5053168;28;20180;-69
2021/01/30 13:12:44;;;;;;;5.17;3.17;;;23.50;99.90;;;;;;5052382;28;20933;-70
2021/01/30 13:15:12;;;;;;;5.67;3.73;;;23.50;99.90;;;;;;5053135;28;20539;-69
2021/01/30 13:17:39;;;;;;;7.27;3.83;;;23.40;99.90;;;;;;5052734;28;20226;-68
2021/01/30 13:20:07;;;;;;;4.27;3.20;;;23.40;99.90;;;;;;5053433;28;20642;-69
2021/01/30 13:22:35;;;;;;;4.73;3.30;;;23.40;99.90;;;;;;5051184;28;20247;-69
2021/01/30 13:25:05;;;;;;;4.97;3.90;;;23.40;99.90;;;;;;5049958;28;20243;-70